createdAt,value
2023-05-06T00:00:05.800Z,92120.44
2023-05-06T00:02:44.072Z,92116.06
2023-05-06T00:05:17.821Z,92121.78
2023-05-06T00:07:50.813Z,92122.59
2023-05-06T00:10:23.327Z,92124.78
2023-05-06T00:12:55.607Z,92107.66
2023-05-06T00:15:30.133Z,92120.66
2023-05-06T00:18:04.068Z,92107.72
2023-05-06T00:20:36.459Z,92096.84
2023-05-06T00:23:10.302Z,92116.31
2023-05-06T00:25:42.680Z,92112.13
2023-05-06T00:28:14.992Z,92116.16
2023-05-06T00:30:47.352Z,92107.28
2023-05-06T00:33:19.702Z,92119.50
2023-05-06T00:35:52.008Z,92112.19
2023-05-06T00:38:25.377Z,92111.91
2023-05-06T00:40:57.694Z,92114.78
2023-05-06T00:43:30.848Z,92112.69
2023-05-06T00:46:03.238Z,92111.22
2023-05-06T00:48:35.984Z,92108.91
2023-05-06T00:51:08.433Z,92106.31
2023-05-06T00:53:41.491Z,92108.56
2023-05-06T00:56:13.878Z,92099.50
2023-05-06T00:58:46.162Z,92107.50
2023-05-06T01:01:18.761Z,92106.38
2023-05-06T01:03:56.338Z,92100.91
2023-05-06T01:06:35.695Z,92104.06
2023-05-06T01:09:15.961Z,92098.38
2023-05-06T01:11:52.683Z,92099.84
2023-05-06T01:14:32.724Z,92099.78
2023-05-06T01:17:10.505Z,92101.31
2023-05-06T01:19:45.983Z,92097.94
2023-05-06T01:22:19.733Z,92093.47
2023-05-06T01:24:52.736Z,92089.81
2023-05-06T01:27:28.485Z,92089.00
2023-05-06T01:30:01.797Z,92098.88
2023-05-06T01:32:46.018Z,92103.13
2023-05-06T01:35:23.988Z,92097.25
2023-05-06T01:38:06.400Z,92098.16
2023-05-06T01:40:40.839Z,92097.66
2023-05-06T01:43:14.993Z,92095.00
2023-05-06T01:45:52.719Z,92097.13
2023-05-06T01:48:27.885Z,92097.19
2023-05-06T01:51:01.409Z,92095.66
2023-05-06T01:53:33.752Z,92102.94
2023-05-06T01:56:07.342Z,92105.06
2023-05-06T01:58:39.700Z,92094.25
2023-05-06T02:01:12.067Z,92090.91
2023-05-06T02:03:45.744Z,92095.63
2023-05-06T02:06:18.421Z,92091.81
2023-05-06T02:08:52.045Z,92101.44
2023-05-06T02:11:28.529Z,92097.72
2023-05-06T02:14:07.367Z,92098.78
2023-05-06T02:16:40.651Z,92096.25
2023-05-06T02:19:12.932Z,92098.63
2023-05-06T02:21:45.200Z,92100.28
2023-05-06T02:24:17.513Z,92101.94
2023-05-06T02:26:50.474Z,92099.94
2023-05-06T02:29:22.882Z,92104.94
2023-05-06T02:31:55.433Z,92103.75
2023-05-06T02:34:27.769Z,92102.69
2023-05-06T02:37:00.056Z,92104.53
2023-05-06T02:39:32.835Z,92101.94
2023-05-06T02:42:06.555Z,92100.63
2023-05-06T02:44:38.878Z,92098.72
2023-05-06T02:47:29.775Z,92103.22
2023-05-06T02:50:02.967Z,92105.75
2023-05-06T02:52:37.073Z,92113.31
2023-05-06T02:55:09.989Z,92108.91
2023-05-06T02:57:43.685Z,92102.34
2023-05-06T03:00:16.406Z,92112.53
2023-05-06T03:02:48.785Z,92108.09
2023-05-06T03:05:21.082Z,92111.50
2023-05-06T03:07:53.470Z,92114.03
2023-05-06T03:10:26.920Z,92113.59
2023-05-06T03:13:01.332Z,92112.53
2023-05-06T03:15:34.461Z,92120.16
2023-05-06T03:18:06.853Z,92124.59
2023-05-06T03:20:39.291Z,92127.72
2023-05-06T03:23:11.596Z,92126.19
2023-05-06T03:25:43.990Z,92126.72
2023-05-06T03:28:16.994Z,92129.22
2023-05-06T03:30:51.299Z,92132.81
2023-05-06T03:33:23.653Z,92131.59
2023-05-06T03:35:56.123Z,92135.22
2023-05-06T03:38:28.590Z,92133.66
2023-05-06T03:41:06.469Z,92141.13
2023-05-06T03:43:39.487Z,92145.56
2023-05-06T03:46:12.043Z,92147.72
2023-05-06T03:48:45.009Z,92136.31
2023-05-06T03:51:20.366Z,92140.22
2023-05-06T03:53:54.737Z,92136.84
2023-05-06T03:56:27.807Z,92139.97
2023-05-06T03:59:02.984Z,92150.88
2023-05-06T04:01:35.500Z,92149.59
2023-05-06T04:04:07.948Z,92152.41
2023-05-06T04:06:40.649Z,92151.91
2023-05-06T04:09:13.711Z,92160.50
2023-05-06T04:11:46.157Z,92164.16
2023-05-06T04:14:21.984Z,92158.66
2023-05-06T04:16:54.754Z,92166.63
2023-05-06T04:19:27.377Z,92160.16
2023-05-06T04:21:59.739Z,92163.81
2023-05-06T04:24:33.168Z,92167.59
2023-05-06T04:27:05.772Z,92166.56
2023-05-06T04:29:38.914Z,92167.56
2023-05-06T04:32:11.215Z,92163.88
2023-05-06T04:34:44.059Z,92173.41
2023-05-06T04:37:20.428Z,92170.75
2023-05-06T04:39:57.345Z,92170.09
2023-05-06T04:42:29.721Z,92166.69
2023-05-06T04:45:13.148Z,92173.94
2023-05-06T04:47:49.659Z,92170.22
2023-05-06T04:50:23.735Z,92175.44
2023-05-06T04:52:57.613Z,92182.59
2023-05-06T04:55:30.114Z,92177.31
2023-05-06T04:58:02.491Z,92173.34
2023-05-06T05:00:35.664Z,92175.09
2023-05-06T05:03:09.725Z,92174.56
2023-05-06T05:05:42.133Z,92178.59
2023-05-06T05:08:20.771Z,92176.41
2023-05-06T05:10:53.157Z,92177.91
2023-05-06T05:13:28.281Z,92185.78
2023-05-06T05:16:02.532Z,92184.66
2023-05-06T05:18:37.576Z,92190.31
2023-05-06T05:21:17.265Z,92186.81
2023-05-06T05:23:49.639Z,92179.94
2023-05-06T05:26:22.013Z,92183.66
2023-05-06T05:28:56.730Z,92174.50
2023-05-06T05:31:30.685Z,92179.75
2023-05-06T05:34:03.104Z,92180.81
2023-05-06T05:36:35.521Z,92182.88
2023-05-06T05:39:10.850Z,92190.47
2023-05-06T05:41:48.990Z,92186.81
2023-05-06T05:44:21.495Z,92184.25
2023-05-06T05:46:54.815Z,92191.34
2023-05-06T05:49:27.334Z,92183.72
2023-05-06T05:51:59.680Z,92187.19
2023-05-06T05:54:33.071Z,92184.22
2023-05-06T05:57:05.390Z,92178.91
2023-05-06T05:59:38.296Z,92180.53
2023-05-06T06:02:12.859Z,92186.34
2023-05-06T06:04:45.337Z,92187.97
2023-05-06T06:07:17.830Z,92188.28
2023-05-06T06:09:51.072Z,92190.47
2023-05-06T06:12:23.622Z,92196.69
2023-05-06T06:14:56.005Z,92201.69
2023-05-06T06:17:30.995Z,92197.25
2023-05-06T06:20:05.286Z,92197.63
2023-05-06T06:22:37.673Z,92199.84
2023-05-06T06:25:10.413Z,92198.72
2023-05-06T06:27:43.250Z,92196.38
2023-05-06T06:30:16.311Z,92188.75
2023-05-06T06:32:50.727Z,92196.97
2023-05-06T06:35:23.133Z,92199.84
2023-05-06T06:37:56.255Z,92199.94
2023-05-06T06:40:28.673Z,92199.47
2023-05-06T06:43:01.491Z,92201.38
2023-05-06T06:46:03.071Z,92204.16
2023-05-06T06:48:36.069Z,92209.00
2023-05-06T06:51:08.346Z,92206.06
2023-05-06T06:53:40.668Z,92214.97
2023-05-06T06:56:13.052Z,92219.22
2023-05-06T06:58:45.387Z,92215.75
2023-05-06T07:01:17.796Z,92213.44
2023-05-06T07:03:50.818Z,92211.28
2023-05-06T07:06:23.151Z,92220.56
2023-05-06T07:08:55.723Z,92217.44
2023-05-06T07:11:28.233Z,92221.19
2023-05-06T07:14:00.951Z,92220.94
2023-05-06T07:16:33.574Z,92229.31
2023-05-06T07:19:06.545Z,92226.03
2023-05-06T07:21:38.865Z,92230.47
2023-05-06T07:24:11.248Z,92215.69
2023-05-06T07:26:43.674Z,92215.59
2023-05-06T07:29:16.183Z,92221.81
2023-05-06T07:31:48.557Z,92210.41
2023-05-06T07:34:21.724Z,92214.03
2023-05-06T07:36:54.057Z,92206.63
2023-05-06T07:39:26.413Z,92208.78
2023-05-06T07:41:58.691Z,92199.03
2023-05-06T07:44:31.074Z,92202.28
2023-05-06T07:47:03.502Z,92204.47
2023-05-06T07:49:36.628Z,92194.00
2023-05-06T07:52:08.974Z,92190.00
2023-05-06T07:54:41.266Z,92194.78
2023-05-06T07:57:13.728Z,92197.09
2023-05-06T07:59:48.004Z,92188.63
2023-05-06T08:02:20.388Z,92193.38
2023-05-06T08:04:53.565Z,92194.75
2023-05-06T08:07:25.946Z,92201.53
2023-05-06T08:09:58.426Z,92203.31
2023-05-06T08:12:30.985Z,92216.09
2023-05-06T08:15:03.855Z,92219.00
2023-05-06T08:17:36.898Z,92225.88
2023-05-06T08:20:11.064Z,92226.81
2023-05-06T08:22:43.358Z,92233.50
2023-05-06T08:25:16.388Z,92238.00
2023-05-06T08:27:48.669Z,92237.50
2023-05-06T08:30:21.052Z,92231.44
2023-05-06T08:32:53.414Z,92242.78
2023-05-06T08:35:26.495Z,92238.81
2023-05-06T08:37:58.831Z,92248.31
2023-05-06T08:40:32.956Z,92246.66
2023-05-06T08:43:06.271Z,92245.00
2023-05-06T08:45:38.695Z,92250.19
2023-05-06T08:48:11.201Z,92251.75
2023-05-06T08:50:44.205Z,92252.28
2023-05-06T08:53:16.714Z,92251.38
2023-05-06T08:55:51.326Z,92248.44
2023-05-06T08:58:25.863Z,92251.94
2023-05-06T09:00:59.458Z,92247.44
2023-05-06T09:03:31.856Z,92244.06
2023-05-06T09:06:05.289Z,92238.91
2023-05-06T09:08:37.632Z,92241.50
2023-05-06T09:11:21.265Z,92234.47
2023-05-06T09:14:08.594Z,92235.84
2023-05-06T09:16:43.130Z,92232.13
2023-05-06T09:19:16.932Z,92234.88
2023-05-06T09:21:51.324Z,92222.25
2023-05-06T09:24:24.062Z,92226.50
2023-05-06T09:26:56.410Z,92221.00
2023-05-06T09:29:28.697Z,92219.16
2023-05-06T09:32:07.365Z,92210.06
2023-05-06T09:34:45.680Z,92223.16
2023-05-06T09:37:20.264Z,92222.69
2023-05-06T09:39:55.281Z,92204.28
2023-05-06T09:42:29.180Z,92227.50
2023-05-06T09:45:02.486Z,92225.59
2023-05-06T09:47:37.469Z,92207.78
2023-05-06T09:50:13.186Z,92219.25
2023-05-06T09:52:48.107Z,92214.59
2023-05-06T09:55:21.738Z,92211.84
2023-05-06T09:57:54.908Z,92212.03
2023-05-06T10:00:29.872Z,92208.63
2023-05-06T10:03:04.213Z,92207.75
2023-05-06T10:05:37.140Z,92206.53
2023-05-06T10:08:12.477Z,92207.72
2023-05-06T10:10:46.357Z,92200.13
2023-05-06T10:13:20.222Z,92195.41
2023-05-06T10:15:53.112Z,92191.75
2023-05-06T10:18:26.613Z,92188.16
2023-05-06T10:21:00.002Z,92193.66
2023-05-06T10:23:42.824Z,92185.88
2023-05-06T10:26:17.343Z,92193.66
2023-05-06T10:28:53.088Z,92189.03
2023-05-06T10:31:27.064Z,92190.28
2023-05-06T10:34:03.406Z,92188.47
2023-05-06T10:36:37.162Z,92190.00
2023-05-06T10:39:13.004Z,92176.41
2023-05-06T10:41:45.482Z,92182.13
2023-05-06T10:44:17.811Z,92182.19
2023-05-06T10:46:58.295Z,92179.94
2023-05-06T10:49:30.648Z,92194.91
2023-05-06T10:52:11.679Z,92188.28
2023-05-06T10:54:51.332Z,92187.94
2023-05-06T10:57:26.084Z,92190.44
2023-05-06T10:59:58.519Z,92183.28
2023-05-06T11:02:30.921Z,92188.75
2023-05-06T11:05:05.089Z,92184.25
2023-05-06T11:07:37.549Z,92181.44
2023-05-06T11:10:11.371Z,92174.00
2023-05-06T11:12:48.620Z,92183.47
2023-05-06T11:15:25.757Z,92183.75
2023-05-06T11:17:58.214Z,92189.63
2023-05-06T11:20:30.696Z,92194.09
2023-05-06T11:23:03.003Z,92193.13
2023-05-06T11:25:42.977Z,92188.09
2023-05-06T11:28:15.453Z,92180.50
2023-05-06T11:30:54.940Z,92188.09
2023-05-06T11:33:32.608Z,92176.75
2023-05-06T11:36:05.960Z,92184.63
2023-05-06T11:38:42.156Z,92189.19
2023-05-06T11:41:15.924Z,92189.81
2023-05-06T11:43:49.553Z,92194.56
2023-05-06T11:46:24.280Z,92197.78
2023-05-06T11:48:56.633Z,92190.28
2023-05-06T11:51:28.925Z,92190.03
2023-05-06T11:54:09.333Z,92176.53
2023-05-06T11:56:46.891Z,92176.44
2023-05-06T11:59:30.850Z,92174.19
2023-05-06T12:02:05.020Z,92178.16
2023-05-06T12:04:39.070Z,92180.91
2023-05-06T12:07:13.445Z,92195.88
2023-05-06T12:09:47.602Z,92182.25
2023-05-06T12:12:23.620Z,92177.97
2023-05-06T12:14:56.457Z,92189.72
2023-05-06T12:17:28.898Z,92176.59
2023-05-06T12:20:02.307Z,92176.91
2023-05-06T12:22:34.649Z,92170.28
2023-05-06T12:25:15.130Z,92174.66
2023-05-06T12:27:48.138Z,92171.47
2023-05-06T12:30:29.291Z,92175.47
2023-05-06T12:33:02.188Z,92169.94
2023-05-06T12:35:35.055Z,92172.63
2023-05-06T12:38:08.615Z,92173.44
2023-05-06T12:40:42.562Z,92163.19
2023-05-06T12:43:15.725Z,92163.97
2023-05-06T12:46:03.125Z,92152.47
2023-05-06T12:48:35.633Z,92157.31
2023-05-06T12:51:17.693Z,92166.44
2023-05-06T12:53:50.113Z,92147.63
2023-05-06T12:56:22.436Z,92163.38
2023-05-06T12:58:59.387Z,92155.00
2023-05-06T13:01:32.581Z,92151.25
2023-05-06T13:04:05.153Z,92166.72
2023-05-06T13:06:37.458Z,92158.91
2023-05-06T13:09:10.082Z,92166.28
2023-05-06T13:11:42.355Z,92159.34
2023-05-06T13:14:15.684Z,92158.59
2023-05-06T13:16:48.762Z,92147.47
2023-05-06T13:19:39.925Z,92147.56
2023-05-06T13:22:17.339Z,92148.69
2023-05-06T13:24:50.026Z,92143.81
2023-05-06T13:27:22.359Z,92144.44
2023-05-06T13:29:55.248Z,92142.53
2023-05-06T13:32:27.579Z,92146.25
2023-05-06T13:34:59.877Z,92149.31
2023-05-06T13:37:32.365Z,92141.44
2023-05-06T13:40:05.958Z,92142.16
2023-05-06T13:42:38.260Z,92144.38
2023-05-06T13:45:11.422Z,92151.25
2023-05-06T13:47:43.759Z,92146.16
2023-05-06T13:50:16.150Z,92151.41
2023-05-06T13:52:48.402Z,92154.00
2023-05-06T13:55:20.680Z,92147.50
2023-05-06T13:57:52.977Z,92143.22
2023-05-06T14:00:26.210Z,92150.41
2023-05-06T14:02:58.616Z,92146.19
2023-05-06T14:05:31.758Z,92145.06
2023-05-06T14:08:04.316Z,92138.41
2023-05-06T14:10:36.576Z,92140.22
2023-05-06T14:13:09.090Z,92136.56
2023-05-06T14:15:42.328Z,92147.31
2023-05-06T14:18:15.114Z,92142.47
2023-05-06T14:20:47.444Z,92142.44
2023-05-06T14:23:19.806Z,92142.53
2023-05-06T14:25:52.133Z,92144.22
2023-05-06T14:28:24.425Z,92147.69
2023-05-06T14:30:58.862Z,92150.25
2023-05-06T14:33:31.145Z,92146.34
2023-05-06T14:36:03.842Z,92153.72
2023-05-06T14:38:36.230Z,92148.25
2023-05-06T14:41:08.518Z,92150.88
2023-05-06T14:43:40.928Z,92140.94
2023-05-06T14:46:15.186Z,92147.19
2023-05-06T14:48:47.521Z,92152.66
2023-05-06T14:51:19.824Z,92143.78
2023-05-06T14:53:52.114Z,92148.22
2023-05-06T14:56:24.408Z,92135.19
2023-05-06T14:58:56.649Z,92135.13
2023-05-06T15:01:31.458Z,92146.94
2023-05-06T15:04:04.156Z,92140.88
2023-05-06T15:06:36.649Z,92139.41
2023-05-06T15:09:09.615Z,92137.66
2023-05-06T15:11:41.964Z,92138.38
2023-05-06T15:14:14.261Z,92143.50
2023-05-06T15:16:47.229Z,92139.25
2023-05-06T15:19:19.547Z,92148.78
2023-05-06T15:21:51.816Z,92154.31
2023-05-06T15:24:24.173Z,92148.88
2023-05-06T15:26:56.529Z,92146.56
2023-05-06T15:29:28.883Z,92146.94
2023-05-06T15:32:02.047Z,92149.25
2023-05-06T15:34:34.460Z,92144.41
2023-05-06T15:37:07.326Z,92146.56
2023-05-06T15:39:39.774Z,92148.69
2023-05-06T15:42:12.066Z,92149.34
2023-05-06T15:44:47.187Z,92142.41
2023-05-06T15:47:20.586Z,92140.59
2023-05-06T15:49:55.022Z,92142.47
2023-05-06T15:52:27.873Z,92134.91
2023-05-06T15:55:01.061Z,92136.28
2023-05-06T15:57:33.382Z,92141.19
2023-05-06T16:00:07.702Z,92130.97
2023-05-06T16:02:40.830Z,92131.13
2023-05-06T16:05:13.384Z,92124.19
2023-05-06T16:07:45.721Z,92120.16
2023-05-06T16:10:18.045Z,92130.41
2023-05-06T16:12:50.366Z,92127.56
2023-05-06T16:15:22.680Z,92119.09
2023-05-06T16:17:55.670Z,92131.97
2023-05-06T16:20:28.938Z,92128.47
2023-05-06T16:23:02.122Z,92128.91
2023-05-06T16:25:37.029Z,92121.56
2023-05-06T16:28:09.342Z,92120.44
2023-05-06T16:30:45.590Z,92123.25
2023-05-06T16:33:18.567Z,92117.22
2023-05-06T16:35:51.074Z,92125.75
2023-05-06T16:38:24.057Z,92120.72
2023-05-06T16:40:56.402Z,92126.63
2023-05-06T16:43:28.685Z,92127.72
2023-05-06T16:46:01.487Z,92131.41
2023-05-06T16:48:34.570Z,92130.88
2023-05-06T16:51:07.064Z,92127.44
2023-05-06T16:53:39.339Z,92130.31
2023-05-06T16:56:12.301Z,92130.13
2023-05-06T16:58:44.575Z,92137.81
2023-05-06T17:01:16.990Z,92140.28
2023-05-06T17:03:50.224Z,92140.38
2023-05-06T17:06:29.037Z,92138.28
2023-05-06T17:09:01.381Z,92144.50
2023-05-06T17:11:33.726Z,92142.28
2023-05-06T17:14:06.003Z,92146.53
2023-05-06T17:16:38.588Z,92145.69
2023-05-06T17:19:11.905Z,92143.97
2023-05-06T17:21:44.250Z,92138.75
2023-05-06T17:24:16.547Z,92142.91
2023-05-06T17:26:48.887Z,92141.97
2023-05-06T17:29:21.476Z,92147.28
2023-05-06T17:31:53.759Z,92143.63
2023-05-06T17:34:26.690Z,92150.03
2023-05-06T17:36:59.424Z,92150.59
2023-05-06T17:39:32.601Z,92153.34
2023-05-06T17:42:04.980Z,92153.47
2023-05-06T17:44:38.642Z,92152.91
2023-05-06T17:47:11.047Z,92156.78
2023-05-06T17:49:44.919Z,92159.75
2023-05-06T17:52:17.399Z,92169.94
2023-05-06T17:55:05.747Z,92167.34
2023-05-06T17:57:42.277Z,92171.81
2023-05-06T18:00:16.054Z,92179.84
2023-05-06T18:02:48.526Z,92186.19
2023-05-06T18:05:23.927Z,92186.00
2023-05-06T18:07:56.199Z,92197.09
2023-05-06T18:10:28.810Z,92189.69
2023-05-06T18:13:01.349Z,92193.25
2023-05-06T18:15:33.689Z,92190.94
2023-05-06T18:18:06.101Z,92194.78
2023-05-06T18:20:39.992Z,92190.47
2023-05-06T18:23:12.276Z,92192.00
2023-05-06T18:25:44.739Z,92191.69
2023-05-06T18:28:17.116Z,92185.38
2023-05-06T18:30:49.524Z,92189.22
2023-05-06T18:33:21.886Z,92188.75
2023-05-06T18:35:54.877Z,92193.03
2023-05-06T18:38:27.230Z,92201.06
2023-05-06T18:41:01.744Z,92195.38
2023-05-06T18:43:34.038Z,92193.03
2023-05-06T18:46:06.461Z,92194.13
2023-05-06T18:48:38.848Z,92200.59
2023-05-06T18:51:13.102Z,92203.34
2023-05-06T18:53:45.563Z,92203.84
2023-05-06T18:56:17.960Z,92207.41
2023-05-06T18:58:50.259Z,92210.81
2023-05-06T19:01:22.644Z,92215.56
2023-05-06T19:03:55.776Z,92222.50
2023-05-06T19:06:30.771Z,92212.19
2023-05-06T19:09:03.199Z,92220.19
2023-05-06T19:11:35.604Z,92217.06
2023-05-06T19:14:08.061Z,92209.72
2023-05-06T19:16:40.437Z,92207.56
2023-05-06T19:19:12.764Z,92207.41
2023-05-06T19:21:45.722Z,92207.13
2023-05-06T19:24:17.994Z,92198.16
2023-05-06T19:26:50.624Z,92211.69
2023-05-06T19:29:22.962Z,92204.00
2023-05-06T19:31:55.259Z,92216.94
2023-05-06T19:34:27.539Z,92212.19
2023-05-06T19:37:01.057Z,92213.75
2023-05-06T19:39:33.364Z,92213.25
2023-05-06T19:42:06.176Z,92214.97
2023-05-06T19:44:38.482Z,92216.75
2023-05-06T19:47:11.742Z,92219.84
2023-05-06T19:49:44.138Z,92225.03
2023-05-06T19:52:17.346Z,92222.88
2023-05-06T19:54:50.039Z,92219.00
2023-05-06T19:57:23.383Z,92221.19
2023-05-06T19:59:56.079Z,92216.56
2023-05-06T20:02:28.419Z,92222.84
2023-05-06T20:05:01.110Z,92222.69
2023-05-06T20:07:34.058Z,92221.47
2023-05-06T20:10:09.222Z,92223.13
2023-05-06T20:12:41.631Z,92221.31
2023-05-06T20:15:13.960Z,92227.81
2023-05-06T20:17:46.389Z,92231.34
2023-05-06T20:20:19.138Z,92233.38
2023-05-06T20:22:52.127Z,92231.63
2023-05-06T20:25:24.370Z,92227.91
2023-05-06T20:27:57.435Z,92227.16
2023-05-06T20:30:29.858Z,92231.47
2023-05-06T20:33:02.278Z,92225.94
2023-05-06T20:35:37.478Z,92226.41
2023-05-06T20:38:10.825Z,92232.88
2023-05-06T20:40:43.108Z,92228.66
2023-05-06T20:43:15.476Z,92227.13
2023-05-06T20:45:47.814Z,92213.09
2023-05-06T20:48:20.271Z,92220.44
2023-05-06T20:50:53.450Z,92221.88
2023-05-06T20:53:26.637Z,92226.66
2023-05-06T20:55:59.252Z,92227.28
2023-05-06T20:58:31.575Z,92228.13
2023-05-06T21:01:03.935Z,92232.28
2023-05-06T21:03:36.305Z,92229.38
2023-05-06T21:06:09.114Z,92229.69
2023-05-06T21:08:42.576Z,92236.31
2023-05-06T21:11:15.026Z,92235.41
2023-05-06T21:13:48.297Z,92238.97
2023-05-06T21:16:22.389Z,92227.88
2023-05-06T21:18:54.708Z,92234.63
2023-05-06T21:21:30.205Z,92231.25
2023-05-06T21:24:03.454Z,92230.53
2023-05-06T21:26:35.822Z,92228.16
2023-05-06T21:29:08.103Z,92230.47
2023-05-06T21:31:40.535Z,92227.84
2023-05-06T21:34:13.004Z,92227.63
2023-05-06T21:36:45.397Z,92228.06
2023-05-06T21:39:18.434Z,92230.22
2023-05-06T21:41:50.705Z,92230.66
2023-05-06T21:44:22.987Z,92233.56
2023-05-06T21:46:55.323Z,92231.75
2023-05-06T21:49:27.657Z,92244.13
2023-05-06T21:51:59.929Z,92239.78
2023-05-06T21:54:33.277Z,92237.00
2023-05-06T21:57:07.347Z,92234.81
2023-05-06T21:59:39.651Z,92244.78
2023-05-06T22:02:12.127Z,92237.06
2023-05-06T22:04:44.488Z,92243.31
2023-05-06T22:07:16.854Z,92228.88
2023-05-06T22:09:49.871Z,92245.97
2023-05-06T22:12:22.177Z,92246.69
2023-05-06T22:14:54.482Z,92249.34
2023-05-06T22:17:26.781Z,92242.97
2023-05-06T22:20:01.643Z,92246.75
2023-05-06T22:22:34.502Z,92245.78
2023-05-06T22:25:09.240Z,92243.88
2023-05-06T22:27:41.790Z,92248.44
2023-05-06T22:30:15.483Z,92246.41
2023-05-06T22:32:47.865Z,92252.50
2023-05-06T22:35:20.198Z,92247.78
2023-05-06T22:37:52.557Z,92250.19
2023-05-06T22:40:27.148Z,92253.88
2023-05-06T22:42:59.391Z,92252.81
2023-05-06T22:45:31.825Z,92246.31
2023-05-06T22:48:04.826Z,92243.59
2023-05-06T22:50:37.435Z,92245.66
2023-05-06T22:53:15.140Z,92241.69
2023-05-06T22:55:48.526Z,92244.28
2023-05-06T22:58:20.823Z,92243.03
2023-05-06T23:00:53.833Z,92238.69
2023-05-06T23:03:26.214Z,92238.25
2023-05-06T23:05:58.528Z,92241.47
2023-05-06T23:08:30.826Z,92237.75
2023-05-06T23:11:03.762Z,92237.34
2023-05-06T23:13:36.332Z,92232.06
2023-05-06T23:16:09.543Z,92240.31
2023-05-06T23:18:42.092Z,92241.75
2023-05-06T23:21:14.442Z,92225.44
2023-05-06T23:23:46.777Z,92233.59
2023-05-06T23:26:20.080Z,92230.31
2023-05-06T23:28:52.368Z,92232.16
2023-05-06T23:31:24.854Z,92227.94
2023-05-06T23:33:57.227Z,92227.94
2023-05-06T23:36:30.109Z,92226.69
2023-05-06T23:39:02.670Z,92222.88
2023-05-06T23:41:35.673Z,92223.31
2023-05-06T23:44:07.954Z,92222.59
2023-05-06T23:46:40.254Z,92231.59
2023-05-06T23:49:12.633Z,92230.50
2023-05-06T23:51:44.929Z,92226.63
2023-05-06T23:54:17.226Z,92237.88
2023-05-06T23:56:50.129Z,92237.59
2023-05-06T23:59:22.437Z,92237.38
